Time;durP1;ratioP1;P1;durP2;ratioP2;P2;SDS_P1;SDS_P2;PMS_P1;PMS_P2;Temp;Humidity;BMP_temperature;BMP_pressure;BME280_temperature;BME280_humidity;BME280_pressure;Samples;Min_cycle;Max_cycle;Signal;HPM_P1;HPM_P2
2023/07/29 00:00:46;;;;;;;10.50;10.10;;;18.30;99.90;;;;;;5020197;28;20468;-66
2023/07/29 00:03:12;;;;;;;11.47;11.07;;;18.20;99.90;;;;;;5019283;28;20481;-69
2023/07/29 00:05:39;;;;;;;10.70;10.30;;;18.30;99.90;;;;;;5020916;28;20542;-69
2023/07/29 00:08:07;;;;;;;10.53;10.13;;;18.30;99.90;;;;;;5025738;28;20515;-68
2023/07/29 00:10:37;;;;;;;10.50;10.10;;;18.30;99.90;;;;;;5026974;28;20464;-68
2023/07/29 00:13:04;;;;;;;10.60;10.20;;;18.30;99.90;;;;;;5019203;28;20465;-68
2023/07/29 00:15:31;;;;;;;10.50;10.10;;;18.20;99.90;;;;;;5023382;28;21046;-67
2023/07/29 00:17:59;;;;;;;11.10;10.70;;;18.20;99.90;;;;;;5006272;28;20501;-67
2023/07/29 00:20:25;;;;;;;10.30;10.00;;;18.20;99.90;;;;;;5011305;28;20465;-68
2023/07/29 00:22:54;;;;;;;10.50;10.10;;;18.20;99.90;;;;;;5005317;28;20465;-67
2023/07/29 00:25:21;;;;;;;10.00;9.70;;;18.20;99.90;;;;;;4998926;28;20467;-67
2023/07/29 00:27:49;;;;;;;10.70;10.30;;;18.20;99.90;;;;;;5010522;28;20490;-69
2023/07/29 00:30:16;;;;;;;10.67;10.27;;;18.30;99.90;;;;;;5010822;28;20458;-68
2023/07/29 00:32:43;;;;;;;10.70;10.30;;;18.30;99.90;;;;;;5005155;28;21093;-68
2023/07/29 00:35:12;;;;;;;10.90;10.50;;;18.30;99.90;;;;;;5013242;28;20473;-68
2023/07/29 00:37:39;;;;;;;11.40;11.00;;;18.30;99.90;;;;;;5010807;28;20491;-69
2023/07/29 00:40:16;;;;;;;11.20;10.80;;;18.40;99.90;;;;;;5009877;28;20567;-68
2023/07/29 00:42:44;;;;;;;10.90;10.50;;;18.50;99.90;;;;;;5017741;28;20460;-68
2023/07/29 00:45:13;;;;;;;10.90;10.50;;;18.50;99.90;;;;;;5007549;28;20923;-68
2023/07/29 00:47:40;;;;;;;10.90;10.50;;;18.50;99.90;;;;;;5023019;28;20468;-68
2023/07/29 00:50:09;;;;;;;11.03;10.63;;;18.50;99.90;;;;;;5011417;28;20465;-68
2023/07/29 00:52:36;;;;;;;10.70;10.30;;;18.50;99.90;;;;;;5006432;28;20829;-69
2023/07/29 00:55:02;;;;;;;11.20;10.80;;;18.50;99.90;;;;;;5020319;28;20473;-67
2023/07/29 00:57:30;;;;;;;11.53;11.13;;;18.50;99.90;;;;;;5007707;28;20492;-68
2023/07/29 00:59:59;;;;;;;11.37;10.97;;;18.60;99.90;;;;;;5018350;28;20468;-68
2023/07/29 01:02:29;;;;;;;11.20;10.80;;;18.70;99.90;;;;;;5025225;28;20480;-69
2023/07/29 01:04:57;;;;;;;10.80;10.40;;;18.70;99.90;;;;;;5015492;28;20990;-69
2023/07/29 01:07:31;;;;;;;10.90;10.50;;;18.70;99.90;;;;;;5019473;28;20963;-68
2023/07/29 01:10:03;;;;;;;10.70;10.30;;;18.70;99.90;;;;;;5007417;28;20461;-69
2023/07/29 01:12:42;;;;;;;11.03;10.63;;;18.70;99.90;;;;;;5010749;28;20550;-69
2023/07/29 01:15:14;;;;;;;11.00;10.60;;;18.70;99.90;;;;;;5020145;28;20578;-68
2023/07/29 01:17:48;;;;;;;10.70;10.30;;;18.80;99.90;;;;;;5031430;28;20507;-68
2023/07/29 01:20:17;;;;;;;12.03;11.50;;;18.80;99.90;;;;;;5027470;28;20467;-69
2023/07/29 01:22:44;;;;;;;10.20;9.90;;;18.80;99.90;;;;;;5025248;28;20763;-68
2023/07/29 01:25:12;;;;;;;10.00;9.70;;;18.80;99.90;;;;;;5023443;28;20832;-67
2023/07/29 01:27:39;;;;;;;9.30;9.00;;;18.90;99.90;;;;;;5030706;28;20492;-67
2023/07/29 01:30:08;;;;;;;9.10;8.80;;;18.90;99.90;;;;;;5030780;28;20460;-68
2023/07/29 01:32:40;;;;;;;9.70;9.40;;;18.80;99.90;;;;;;5026508;28;20460;-68
2023/07/29 01:35:16;;;;;;;10.10;9.80;;;18.80;99.90;;;;;;5027575;28;21053;-68
2023/07/29 01:37:48;;;;;;;12.67;12.17;;;18.70;99.90;;;;;;5025960;28;22316;-69
2023/07/29 01:40:18;;;;;;;12.40;11.90;;;18.80;99.90;;;;;;5024690;28;20469;-68
2023/07/29 01:42:46;;;;;;;11.60;11.20;;;18.80;99.90;;;;;;5028270;28;20531;-70
2023/07/29 01:45:13;;;;;;;11.73;11.33;;;18.70;99.90;;;;;;5028491;28;20552;-70
2023/07/29 01:47:41;;;;;;;12.03;11.63;;;18.70;99.90;;;;;;5029230;28;20453;-70
2023/07/29 01:50:09;;;;;;;11.93;11.53;;;18.80;99.90;;;;;;5026228;28;20468;-69
2023/07/29 01:52:36;;;;;;;11.43;11.03;;;18.80;99.90;;;;;;5024415;28;20476;-69
2023/07/29 01:55:03;;;;;;;10.87;10.47;;;18.80;99.90;;;;;;5029338;28;20543;-69
2023/07/29 01:57:32;;;;;;;10.90;10.50;;;18.70;99.90;;;;;;5023915;28;20468;-68
2023/07/29 02:00:00;;;;;;;10.73;10.33;;;18.70;99.90;;;;;;5030161;28;20483;-69
2023/07/29 02:02:26;;;;;;;9.70;9.40;;;18.70;99.90;;;;;;5028334;28;20884;-70
2023/07/29 02:04:55;;;;;;;9.50;9.20;;;18.80;99.90;;;;;;5029667;28;20457;-71
2023/07/29 02:07:23;;;;;;;9.70;9.40;;;18.80;99.90;;;;;;5023234;28;20527;-70
2023/07/29 02:09:50;;;;;;;9.80;9.50;;;18.80;99.90;;;;;;5022441;28;20469;-71
2023/07/29 02:12:17;;;;;;;9.40;9.10;;;18.90;99.90;;;;;;5029941;28;20465;-70
2023/07/29 02:14:45;;;;;;;9.30;9.00;;;18.90;99.90;;;;;;5027344;28;20492;-69
2023/07/29 02:17:12;;;;;;;9.00;8.70;;;19.00;99.90;;;;;;5029643;28;20488;-69
2023/07/29 02:19:39;;;;;;;9.40;9.10;;;18.90;99.90;;;;;;5023171;28;20468;-69
2023/07/29 02:22:06;;;;;;;9.27;8.97;;;18.90;99.90;;;;;;5023810;28;20527;-71
2023/07/29 02:24:32;;;;;;;9.30;9.00;;;19.00;99.90;;;;;;5029067;28;20511;-69
2023/07/29 02:27:00;;;;;;;8.60;8.30;;;19.00;99.90;;;;;;5027278;28;20702;-69
2023/07/29 02:29:27;;;;;;;8.27;8.00;;;19.00;99.90;;;;;;5027096;28;20974;-69
2023/07/29 02:31:55;;;;;;;7.70;7.50;;;19.00;99.90;;;;;;5028382;28;20545;-68
2023/07/29 02:34:22;;;;;;;7.50;7.30;;;19.00;99.90;;;;;;5024194;28;20472;-70
2023/07/29 02:36:50;;;;;;;7.73;7.53;;;19.00;99.90;;;;;;5016499;28;20585;-69
2023/07/29 02:39:18;;;;;;;8.00;7.80;;;19.00;99.90;;;;;;5027392;28;20465;-68
2023/07/29 02:41:45;;;;;;;7.97;7.77;;;19.10;99.90;;;;;;5028154;28;20468;-69
2023/07/29 02:44:12;;;;;;;8.37;8.07;;;19.10;99.90;;;;;;5027368;28;20464;-69
2023/07/29 02:46:39;;;;;;;7.40;7.20;;;19.10;99.90;;;;;;5027246;28;21287;-69
2023/07/29 02:49:07;;;;;;;7.20;7.00;;;19.10;99.90;;;;;;5028360;28;20456;-70
2023/07/29 02:51:34;;;;;;;8.40;8.10;;;19.00;99.90;;;;;;5027004;28;20472;-70
2023/07/29 02:54:01;;;;;;;8.77;8.47;;;19.00;99.90;;;;;;5020988;28;20469;-70
2023/07/29 02:56:30;;;;;;;10.43;10.03;;;19.10;99.90;;;;;;5021189;28;20488;-69
2023/07/29 02:58:57;;;;;;;9.37;9.07;;;19.10;99.90;;;;;;5027685;28;21002;-69
2023/07/29 03:01:24;;;;;;;9.20;8.90;;;19.00;99.90;;;;;;5028588;28;20805;-70
2023/07/29 03:03:51;;;;;;;9.57;9.27;;;19.00;99.90;;;;;;5025197;28;20482;-69
2023/07/29 03:06:20;;;;;;;9.50;9.20;;;19.10;99.90;;;;;;5021525;28;20467;-69
2023/07/29 03:08:47;;;;;;;9.70;9.40;;;19.10;99.90;;;;;;5025544;28;20465;-70
2023/07/29 03:11:15;;;;;;;9.83;9.53;;;19.10;99.90;;;;;;5021432;28;20496;-69
2023/07/29 03:13:42;;;;;;;10.03;9.73;;;19.10;99.90;;;;;;5028955;28;20461;-68
2023/07/29 03:16:10;;;;;;;9.80;9.50;;;19.10;99.90;;;;;;5017699;28;20570;-70
2023/07/29 03:18:38;;;;;;;9.90;9.60;;;19.10;99.90;;;;;;5010975;28;20987;-69
2023/07/29 03:21:05;;;;;;;11.40;10.90;;;19.00;99.90;;;;;;5015055;28;20487;-69
2023/07/29 03:23:34;;;;;;;10.23;9.83;;;19.00;99.90;;;;;;5015657;28;20468;-70
2023/07/29 03:26:09;;;;;;;9.80;9.50;;;19.00;99.90;;;;;;5009076;28;20953;-68
2023/07/29 03:28:37;;;;;;;9.90;9.60;;;19.00;99.90;;;;;;5008291;28;21030;-69
2023/07/29 03:31:05;;;;;;;10.57;10.17;;;18.90;99.90;;;;;;5005131;28;20472;-69
2023/07/29 03:33:32;;;;;;;9.60;9.30;;;18.80;99.90;;;;;;5005300;28;20469;-69
2023/07/29 03:35:59;;;;;;;9.40;9.10;;;18.70;99.90;;;;;;5007663;28;20988;-69
2023/07/29 03:38:26;;;;;;;10.80;10.40;;;18.60;99.90;;;;;;5018011;28;20545;-69
2023/07/29 03:40:54;;;;;;;10.63;10.23;;;18.60;99.90;;;;;;5014459;28;20469;-70
2023/07/29 03:43:21;;;;;;;11.10;10.70;;;18.50;99.90;;;;;;4998345;28;20920;-68
2023/07/29 03:45:49;;;;;;;10.10;9.80;;;18.50;99.90;;;;;;5009929;28;20474;-68
2023/07/29 03:48:16;;;;;;;11.20;10.80;;;18.40;99.90;;;;;;5004318;28;20525;-68
2023/07/29 03:50:43;;;;;;;10.90;10.50;;;18.40;99.90;;;;;;5003446;28;20489;-67
2023/07/29 03:53:10;;;;;;;10.80;10.40;;;18.40;99.90;;;;;;5016436;28;20854;-68
2023/07/29 03:55:37;;;;;;;12.10;11.60;;;18.30;99.90;;;;;;5020514;28;20548;-68
2023/07/29 03:58:05;;;;;;;11.70;11.20;;;18.30;99.90;;;;;;5005890;28;20457;-68
2023/07/29 04:00:33;;;;;;;10.73;10.33;;;18.30;99.90;;;;;;4997659;28;20581;-68
2023/07/29 04:02:59;;;;;;;10.50;10.10;;;18.30;99.90;;;;;;5006969;28;20497;-67
2023/07/29 04:05:26;;;;;;;10.73;10.33;;;18.30;99.90;;;;;;5019176;28;20516;-68
2023/07/29 04:07:54;;;;;;;10.50;10.10;;;18.30;99.90;;;;;;5012182;28;20465;-69
2023/07/29 04:10:21;;;;;;;10.13;9.83;;;18.30;99.90;;;;;;5000833;28;20532;-70
2023/07/29 04:12:48;;;;;;;10.07;9.77;;;18.40;99.90;;;;;;4998869;28;20516;-69
2023/07/29 04:15:18;;;;;;;9.60;9.30;;;18.40;99.90;;;;;;5016258;28;20480;-68
2023/07/29 04:17:45;;;;;;;9.90;9.60;;;18.40;99.90;;;;;;5027310;28;20489;-68
2023/07/29 04:20:12;;;;;;;9.83;9.53;;;18.40;99.90;;;;;;5023329;28;20483;-69
2023/07/29 04:22:39;;;;;;;9.97;9.57;;;18.40;99.90;;;;;;5025565;28;20465;-68
2023/07/29 04:25:07;;;;;;;10.20;9.90;;;18.50;99.90;;;;;;5027446;28;20457;-68
2023/07/29 04:27:34;;;;;;;10.20;9.90;;;18.40;99.90;;;;;;5017894;28;20469;-68
2023/07/29 04:30:00;;;;;;;11.17;10.70;;;18.40;99.90;;;;;;5019625;28;20472;-69
2023/07/29 04:32:29;;;;;;;10.40;10.00;;;18.40;99.90;;;;;;5026894;28;20469;-69
2023/07/29 04:34:57;;;;;;;10.87;10.37;;;18.40;99.90;;;;;;5023584;28;20468;-68
2023/07/29 04:37:25;;;;;;;9.70;9.40;;;18.30;99.90;;;;;;5023137;28;20492;-68
2023/07/29 04:39:52;;;;;;;9.70;9.40;;;18.30;99.90;;;;;;5017366;28;20457;-69
2023/07/29 04:42:19;;;;;;;9.90;9.60;;;18.30;99.90;;;;;;5027786;28;20462;-69
2023/07/29 04:44:45;;;;;;;10.50;10.10;;;18.20;99.90;;;;;;5026856;28;20467;-68
2023/07/29 04:47:12;;;;;;;10.50;10.10;;;18.20;99.90;;;;;;5019003;28;20465;-68
2023/07/29 04:49:40;;;;;;;10.43;10.03;;;18.20;99.90;;;;;;5021373;28;20538;-70
2023/07/29 04:52:08;;;;;;;10.93;10.53;;;18.10;99.90;;;;;;5024675;28;20452;-68
2023/07/29 04:54:35;;;;;;;10.60;10.20;;;18.10;99.90;;;;;;5026595;28;20461;-69
2023/07/29 04:57:02;;;;;;;10.63;10.23;;;18.00;99.90;;;;;;5023357;28;20492;-68
2023/07/29 04:59:30;;;;;;;11.17;10.77;;;18.00;99.90;;;;;;5020633;28;20467;-70
2023/07/29 05:01:57;;;;;;;10.93;10.53;;;18.00;99.90;;;;;;5019976;28;20540;-69
2023/07/29 05:04:24;;;;;;;10.97;10.47;;;18.00;99.90;;;;;;5022258;28;20862;-69
2023/07/29 05:06:53;;;;;;;10.20;9.90;;;18.00;99.90;;;;;;5018655;28;20492;-69
2023/07/29 05:09:21;;;;;;;10.50;10.10;;;18.00;99.90;;;;;;5016300;28;20461;-69
2023/07/29 05:11:48;;;;;;;9.97;9.67;;;18.00;99.90;;;;;;5023331;28;20535;-69
2023/07/29 05:14:17;;;;;;;9.43;9.13;;;18.00;99.90;;;;;;5026401;28;20456;-69
2023/07/29 05:16:45;;;;;;;9.83;9.53;;;18.00;99.90;;;;;;5012886;28;21007;-70
2023/07/29 05:19:12;;;;;;;9.60;9.30;;;17.90;99.90;;;;;;5005060;28;20803;-69
2023/07/29 05:21:39;;;;;;;8.77;8.47;;;18.00;99.90;;;;;;5003487;28;21047;-69
2023/07/29 05:24:07;;;;;;;9.17;8.87;;;17.90;99.90;;;;;;5006521;28;20456;-68
2023/07/29 05:26:34;;;;;;;8.53;8.23;;;17.90;99.90;;;;;;5006231;28;20465;-69
2023/07/29 05:29:01;;;;;;;8.67;8.37;;;17.90;99.90;;;;;;5016279;28;20982;-69
2023/07/29 05:31:28;;;;;;;8.73;8.43;;;17.90;99.90;;;;;;5016523;28;20470;-69
2023/07/29 05:33:57;;;;;;;8.20;7.90;;;17.90;99.90;;;;;;5000775;28;20465;-68
2023/07/29 05:36:24;;;;;;;7.80;7.60;;;17.90;99.90;;;;;;4993967;28;20991;-67
2023/07/29 05:38:51;;;;;;;8.27;7.97;;;17.90;99.90;;;;;;5009388;28;20809;-69
2023/07/29 05:41:19;;;;;;;7.37;7.17;;;17.90;99.90;;;;;;5017100;28;20460;-69
2023/07/29 05:43:46;;;;;;;6.80;6.60;;;18.00;99.90;;;;;;5006611;28;20462;-69
2023/07/29 05:46:14;;;;;;;7.07;6.87;;;18.10;99.90;;;;;;5013636;28;20461;-69
2023/07/29 05:48:41;;;;;;;6.20;6.00;;;18.10;99.90;;;;;;5009342;28;20496;-68
2023/07/29 05:51:08;;;;;;;5.53;5.43;;;18.20;99.90;;;;;;5006941;28;20457;-69
2023/07/29 05:53:34;;;;;;;5.97;5.77;;;18.20;99.90;;;;;;5006873;28;20519;-67
2023/07/29 05:56:01;;;;;;;5.33;5.13;;;18.20;99.90;;;;;;5011177;28;21072;-69
2023/07/29 05:58:31;;;;;;;4.60;4.50;;;18.40;99.90;;;;;;5010504;28;20500;-70
2023/07/29 06:00:57;;;;;;;4.90;4.80;;;18.40;99.90;;;;;;5017512;28;20461;-70
2023/07/29 06:03:24;;;;;;;4.50;4.40;;;18.50;99.90;;;;;;5004075;28;20895;-67
2023/07/29 06:05:51;;;;;;;4.50;4.40;;;18.50;99.90;;;;;;5017320;28;20456;-68
2023/07/29 06:08:19;;;;;;;5.27;4.97;;;18.40;99.90;;;;;;5012673;28;20460;-68
2023/07/29 06:10:47;;;;;;;4.30;4.20;;;18.50;99.90;;;;;;4999469;28;20510;-69
2023/07/29 06:13:14;;;;;;;4.77;4.67;;;18.60;99.90;;;;;;5010783;28;20462;-69
2023/07/29 06:15:43;;;;;;;4.90;4.80;;;18.60;99.90;;;;;;5006843;28;20496;-68
2023/07/29 06:18:09;;;;;;;5.17;5.07;;;18.60;99.90;;;;;;5010259;28;20709;-69
2023/07/29 06:20:36;;;;;;;5.80;5.43;;;18.70;99.90;;;;;;5009474;28;20840;-69
2023/07/29 06:23:03;;;;;;;5.00;4.90;;;18.80;99.90;;;;;;5003997;28;20470;-68
2023/07/29 06:25:30;;;;;;;5.83;5.63;;;18.70;99.90;;;;;;5010421;28;20829;-69
2023/07/29 06:27:58;;;;;;;5.77;5.57;;;18.80;99.90;;;;;;5003391;28;20457;-68
2023/07/29 06:30:25;;;;;;;5.80;5.60;;;18.80;99.90;;;;;;5007924;28;20461;-67
2023/07/29 06:32:54;;;;;;;6.10;5.90;;;19.00;99.90;;;;;;5006050;28;20466;-69
2023/07/29 06:35:21;;;;;;;6.53;6.33;;;19.20;99.90;;;;;;5002204;28;20524;-68
2023/07/29 06:37:48;;;;;;;7.53;6.87;;;19.30;99.90;;;;;;5010427;28;20580;-68
2023/07/29 06:40:15;;;;;;;6.73;6.53;;;19.30;99.90;;;;;;5009726;28;20468;-70
2023/07/29 06:42:42;;;;;;;7.37;7.17;;;19.40;99.90;;;;;;5002270;28;20462;-67
2023/07/29 06:45:10;;;;;;;7.40;7.20;;;19.40;99.90;;;;;;5009253;28;20453;-67
2023/07/29 06:47:36;;;;;;;6.90;6.70;;;19.50;99.90;;;;;;5009761;28;20468;-70
2023/07/29 06:50:06;;;;;;;8.07;7.77;;;19.50;99.90;;;;;;5004517;28;20469;-70
2023/07/29 06:52:33;;;;;;;7.80;7.40;;;19.40;99.90;;;;;;4999336;28;20480;-69
2023/07/29 06:55:00;;;;;;;7.73;7.43;;;19.50;99.90;;;;;;5001172;28;20600;-68
2023/07/29 06:57:27;;;;;;;8.27;7.77;;;19.50;99.90;;;;;;5004687;28;20485;-68
2023/07/29 06:59:55;;;;;;;8.10;7.80;;;19.50;99.90;;;;;;4993861;28;21032;-68
2023/07/29 07:02:21;;;;;;;8.90;8.50;;;19.60;99.90;;;;;;5004806;28;20481;-67
2023/07/29 07:04:49;;;;;;;8.80;8.50;;;19.70;99.90;;;;;;4997052;28;20513;-69
2023/07/29 07:07:17;;;;;;;8.70;8.40;;;19.70;99.90;;;;;;4993062;28;20465;-67
2023/07/29 07:09:44;;;;;;;7.73;7.53;;;19.70;99.90;;;;;;5001664;28;20965;-68
2023/07/29 07:12:11;;;;;;;6.90;6.70;;;19.70;99.90;;;;;;4994968;28;20462;-68
2023/07/29 07:14:38;;;;;;;7.37;7.17;;;19.80;99.90;;;;;;4993721;28;20514;-69
2023/07/29 07:17:06;;;;;;;8.60;8.20;;;19.90;99.90;;;;;;5024825;28;20481;-68
2023/07/29 07:19:32;;;;;;;9.60;9.30;;;20.10;99.90;;;;;;5028382;28;20453;-68
2023/07/29 07:22:01;;;;;;;9.53;9.23;;;20.30;99.90;;;;;;5020460;28;20975;-69
2023/07/29 07:24:29;;;;;;;10.27;9.87;;;20.40;99.90;;;;;;5019268;28;20460;-68
2023/07/29 07:26:56;;;;;;;10.90;10.50;;;20.50;99.90;;;;;;5011698;28;20859;-69
2023/07/29 07:29:23;;;;;;;12.00;11.40;;;20.50;99.90;;;;;;5020834;28;20462;-69
2023/07/29 07:31:52;;;;;;;11.57;11.07;;;20.40;99.90;;;;;;5023353;28;20469;-69
2023/07/29 07:34:19;;;;;;;11.70;11.20;;;20.30;99.90;;;;;;5023777;28;20472;-68
2023/07/29 07:36:47;;;;;;;12.10;11.60;;;20.40;99.90;;;;;;5026615;28;20552;-67
2023/07/29 07:39:14;;;;;;;11.00;10.60;;;20.20;99.90;;;;;;5019524;28;20469;-69
2023/07/29 07:41:42;;;;;;;10.80;10.40;;;20.00;99.90;;;;;;5013935;28;20465;-69
2023/07/29 07:44:10;;;;;;;11.27;10.87;;;20.10;99.90;;;;;;5018352;28;20540;-69
2023/07/29 07:46:37;;;;;;;11.20;10.80;;;20.30;99.90;;;;;;5017638;28;20483;-69
2023/07/29 07:49:05;;;;;;;12.80;12.30;;;20.40;99.90;;;;;;5029774;28;20465;-68
2023/07/29 07:51:32;;;;;;;13.03;12.43;;;20.40;99.90;;;;;;5019435;28;20788;-68
2023/07/29 07:54:01;;;;;;;12.10;11.60;;;20.60;99.90;;;;;;5022871;28;20603;-69
2023/07/29 07:56:28;;;;;;;12.93;12.33;;;20.80;99.90;;;;;;5025595;28;20460;-68
2023/07/29 07:58:56;;;;;;;13.37;12.77;;;20.70;99.90;;;;;;5022685;28;20503;-70
2023/07/29 08:01:24;;;;;;;12.77;12.27;;;20.60;99.90;;;;;;5016331;28;20468;-67
2023/07/29 08:03:51;;;;;;;12.63;12.13;;;20.60;99.90;;;;;;5026589;28;20483;-69
2023/07/29 08:06:17;;;;;;;11.80;11.37;;;20.60;99.90;;;;;;5025722;28;20515;-68
2023/07/29 08:08:46;;;;;;;12.30;11.80;;;20.70;99.90;;;;;;5021807;28;20461;-69
2023/07/29 08:11:12;;;;;;;13.00;12.40;;;20.80;99.90;;;;;;5027152;28;20460;-70
2023/07/29 08:13:40;;;;;;;13.00;12.40;;;20.90;99.90;;;;;;5027710;28;20468;-68
2023/07/29 08:16:08;;;;;;;13.00;12.40;;;20.90;99.90;;;;;;5023016;28;20504;-71
2023/07/29 08:18:34;;;;;;;13.30;12.70;;;20.90;99.90;;;;;;5024892;28;20499;-70
2023/07/29 08:21:04;;;;;;;13.83;13.13;;;21.00;99.90;;;;;;5019377;28;20460;-69
2023/07/29 08:23:32;;;;;;;13.70;13.10;;;21.10;99.90;;;;;;5025795;28;20461;-69
2023/07/29 08:26:01;;;;;;;13.50;12.90;;;21.30;99.90;;;;;;5018533;28;20457;-70
2023/07/29 08:28:29;;;;;;;13.53;12.93;;;21.70;99.90;;;;;;5018261;28;20468;-68
2023/07/29 08:30:57;;;;;;;13.53;13.00;;;21.90;99.90;;;;;;5020944;28;20584;-70
2023/07/29 08:33:28;;;;;;;13.57;13.07;;;22.20;99.90;;;;;;5018712;28;20794;-71
2023/07/29 08:35:55;;;;;;;12.73;12.23;;;22.30;99.90;;;;;;5022155;28;20535;-69
2023/07/29 08:38:22;;;;;;;13.43;12.83;;;22.50;99.90;;;;;;5024855;28;20493;-68
2023/07/29 08:40:54;;;;;;;13.57;13.07;;;22.70;99.90;;;;;;5027064;28;20468;-69
2023/07/29 08:43:29;;;;;;;13.80;13.20;;;22.60;99.90;;;;;;5027887;28;20465;-71
2023/07/29 08:45:56;;;;;;;14.10;13.50;;;23.00;99.90;;;;;;5019738;28;20460;-70
2023/07/29 08:48:30;;;;;;;14.30;13.70;;;23.20;99.90;;;;;;5025826;28;21179;-68
2023/07/29 08:50:58;;;;;;;15.30;14.60;;;23.30;99.90;;;;;;5018475;28;20556;-69
2023/07/29 08:53:25;;;;;;;14.57;13.97;;;23.80;99.90;;;;;;5026651;28;21283;-70
2023/07/29 08:55:53;;;;;;;15.33;14.63;;;24.40;99.90;;;;;;5030246;28;20463;-69
2023/07/29 08:58:22;;;;;;;15.50;14.80;;;24.80;99.90;;;;;;5027993;28;20488;-70
2023/07/29 09:00:50;;;;;;;15.43;14.73;;;24.50;99.90;;;;;;5020752;28;20781;-69
2023/07/29 09:03:17;;;;;;;15.30;14.60;;;24.70;99.90;;;;;;5024061;28;20503;-70
2023/07/29 09:05:46;;;;;;;14.60;14.00;;;24.20;99.90;;;;;;5023021;28;20949;-69
2023/07/29 09:08:14;;;;;;;14.83;14.23;;;24.20;99.90;;;;;;5029798;28;20460;-69
2023/07/29 09:10:41;;;;;;;14.80;14.20;;;24.10;99.90;;;;;;5033584;28;20607;-68
2023/07/29 09:13:08;;;;;;;14.60;14.00;;;24.00;99.90;;;;;;5024830;28;20532;-69
2023/07/29 09:15:37;;;;;;;15.03;14.33;;;23.90;99.90;;;;;;5021997;28;20519;-68
2023/07/29 09:18:11;;;;;;;14.70;14.10;;;24.10;99.90;;;;;;5027555;28;20488;-69
2023/07/29 09:20:38;;;;;;;14.20;13.60;;;24.60;99.90;;;;;;5029587;28;20465;-69
2023/07/29 09:23:09;;;;;;;14.43;13.83;;;24.40;99.90;;;;;;5029612;28;20559;-68
2023/07/29 09:25:37;;;;;;;14.80;14.00;;;24.10;99.90;;;;;;5022524;28;20565;-70
2023/07/29 09:28:09;;;;;;;14.80;14.20;;;24.20;99.90;;;;;;5029467;28;20522;-69
2023/07/29 09:30:37;;;;;;;14.23;13.63;;;23.90;99.90;;;;;;5029315;28;20544;-69
2023/07/29 09:33:04;;;;;;;15.07;14.37;;;23.80;99.90;;;;;;5027683;28;20547;-70
2023/07/29 09:35:34;;;;;;;13.77;13.20;;;23.80;99.90;;;;;;5020118;28;20473;-69
2023/07/29 09:38:02;;;;;;;15.37;14.40;;;23.90;99.90;;;;;;5022571;28;21061;-71
2023/07/29 09:40:36;;;;;;;14.37;13.77;;;24.00;99.90;;;;;;5028362;28;20460;-68
2023/07/29 09:43:04;;;;;;;14.90;14.07;;;24.20;99.90;;;;;;5018686;28;20464;-70
2023/07/29 09:45:31;;;;;;;14.47;13.87;;;24.60;99.90;;;;;;5009684;28;20469;-71
2023/07/29 09:47:59;;;;;;;14.47;13.87;;;24.70;99.90;;;;;;5028529;28;20455;-70
2023/07/29 09:50:27;;;;;;;14.73;14.13;;;24.30;99.90;;;;;;5028694;28;20491;-69
2023/07/29 09:52:55;;;;;;;14.50;13.90;;;24.30;99.90;;;;;;5022461;28;20494;-69
2023/07/29 09:55:26;;;;;;;15.20;14.50;;;24.80;99.90;;;;;;5023848;28;20464;-70
2023/07/29 09:57:57;;;;;;;15.33;14.63;;;25.80;99.90;;;;;;5028037;28;20554;-71
2023/07/29 10:00:24;;;;;;;14.63;14.00;;;25.90;99.90;;;;;;5027048;28;20465;-70
2023/07/29 10:02:52;;;;;;;15.83;15.13;;;26.10;99.90;;;;;;5025686;28;20830;-70
2023/07/29 10:05:22;;;;;;;15.30;14.60;;;26.10;99.90;;;;;;5022196;28;20453;-69
2023/07/29 10:07:49;;;;;;;15.33;14.63;;;25.70;99.90;;;;;;5021596;28;20600;-72
2023/07/29 10:10:18;;;;;;;15.60;14.90;;;25.30;99.90;;;;;;5023455;28;20465;-71
2023/07/29 10:12:45;;;;;;;15.43;14.73;;;25.20;99.90;;;;;;5024141;28;20465;-70
2023/07/29 10:15:13;;;;;;;15.10;14.43;;;25.10;99.90;;;;;;5029150;28;21037;-71
2023/07/29 10:17:41;;;;;;;15.27;14.57;;;25.00;99.90;;;;;;5019797;28;20469;-71
2023/07/29 10:20:10;;;;;;;14.67;14.07;;;24.90;99.90;;;;;;5028446;28;20457;-70
2023/07/29 10:22:38;;;;;;;14.83;14.23;;;24.40;99.90;;;;;;5025422;28;20453;-69
2023/07/29 10:25:08;;;;;;;15.50;14.80;;;24.50;99.90;;;;;;5024583;28;20461;-71
2023/07/29 10:27:43;;;;;;;15.00;14.40;;;24.90;99.90;;;;;;5022131;28;20808;-70
2023/07/29 10:30:14;;;;;;;14.63;14.03;;;25.40;99.90;;;;;;5025905;28;21043;-70
2023/07/29 10:32:43;;;;;;;15.80;15.10;;;26.10;99.90;;;;;;5023757;28;20907;-69
2023/07/29 10:35:12;;;;;;;15.23;14.57;;;27.10;99.90;;;;;;5025283;28;20461;-70
2023/07/29 10:37:40;;;;;;;15.87;15.17;;;27.40;99.90;;;;;;5025915;28;20473;-70
2023/07/29 10:40:08;;;;;;;15.23;14.63;;;27.90;99.90;;;;;;5024278;28;20508;-68
2023/07/29 10:42:36;;;;;;;15.70;15.00;;;28.30;99.90;;;;;;5023596;28;20453;-68
2023/07/29 10:45:20;;;;;;;15.33;14.67;;;29.00;99.90;;;;;;5022002;28;20469;-70
2023/07/29 10:47:49;;;;;;;16.20;15.40;;;29.60;99.90;;;;;;5027796;28;20964;-70
2023/07/29 10:50:20;;;;;;;16.37;15.57;;;29.50;99.90;;;;;;5022325;28;20847;-70
2023/07/29 10:52:51;;;;;;;16.93;16.10;;;28.70;99.90;;;;;;5026786;28;20762;-69
2023/07/29 10:55:30;;;;;;;16.63;15.87;;;27.90;99.90;;;;;;5023879;28;20501;-69
2023/07/29 10:58:13;;;;;;;16.33;15.60;;;27.50;99.90;;;;;;5026447;28;20492;-69
2023/07/29 11:00:43;;;;;;;15.33;14.63;;;26.50;99.90;;;;;;5026222;28;20496;-68
2023/07/29 11:03:10;;;;;;;16.27;15.57;;;26.00;99.90;;;;;;5025195;28;20488;-69
2023/07/29 11:05:46;;;;;;;26.40;15.17;;;25.60;99.90;;;;;;5016932;28;20463;-68
2023/07/29 11:08:24;;;;;;;15.07;14.40;;;25.50;99.90;;;;;;5031115;28;20474;-68
2023/07/29 11:11:03;;;;;;;15.37;14.67;;;25.70;99.90;;;;;;5023955;28;20472;-69
2023/07/29 11:13:32;;;;;;;14.70;14.10;;;25.80;99.90;;;;;;5026951;28;20453;-69
2023/07/29 11:16:01;;;;;;;15.67;14.97;;;25.60;99.90;;;;;;5025810;28;20484;-70
2023/07/29 11:18:29;;;;;;;14.97;14.37;;;25.30;99.90;;;;;;5026943;28;20495;-69
2023/07/29 11:20:58;;;;;;;15.30;14.60;;;25.10;99.90;;;;;;5024418;28;20505;-69
2023/07/29 11:23:31;;;;;;;15.20;14.50;;;25.70;99.90;;;;;;5020108;28;20487;-69
2023/07/29 11:25:58;;;;;;;15.17;14.47;;;26.50;99.90;;;;;;5024690;28;21007;-69
2023/07/29 11:28:25;;;;;;;16.27;15.50;;;26.70;99.90;;;;;;5020982;28;21025;-70
2023/07/29 11:30:52;;;;;;;15.30;14.70;;;27.00;99.90;;;;;;5016612;28;21545;-69
2023/07/29 11:33:21;;;;;;;14.87;14.27;;;26.70;99.90;;;;;;5025608;28;20471;-70
2023/07/29 11:35:49;;;;;;;18.50;17.70;;;27.60;99.90;;;;;;5023373;28;20505;-69
2023/07/29 11:38:17;;;;;;;18.43;17.63;;;27.90;99.90;;;;;;5016896;28;20860;-70
2023/07/29 11:40:44;;;;;;;15.50;14.90;;;28.70;99.90;;;;;;5024322;28;20491;-69
2023/07/29 11:43:19;;;;;;;15.50;14.90;;;28.60;99.90;;;;;;5030567;28;20469;-70
2023/07/29 11:45:46;;;;;;;15.93;15.23;;;28.80;99.90;;;;;;5024393;28;20468;-72
2023/07/29 11:48:12;;;;;;;16.43;15.57;;;29.30;99.90;;;;;;5016940;28;20487;-71
2023/07/29 11:50:41;;;;;;;16.20;15.50;;;29.90;99.90;;;;;;5019525;28;20967;-69
2023/07/29 11:53:07;;;;;;;16.40;15.70;;;30.20;99.90;;;;;;5026647;28;20877;-68
2023/07/29 11:55:35;;;;;;;15.67;15.07;;;29.50;99.90;;;;;;5020401;28;20970;-70
2023/07/29 11:58:03;;;;;;;16.50;15.80;;;30.40;99.90;;;;;;5027307;28;20564;-69
2023/07/29 12:00:30;;;;;;;15.37;14.77;;;30.90;99.90;;;;;;5023345;28;20571;-69
2023/07/29 12:02:57;;;;;;;16.13;15.47;;;31.00;99.90;;;;;;5021445;28;20563;-68
2023/07/29 12:05:26;;;;;;;17.17;16.40;;;31.30;99.90;;;;;;5023247;28;20460;-70
2023/07/29 12:07:54;;;;;;;16.77;16.07;;;32.00;99.90;;;;;;5013537;28;21006;-69
2023/07/29 12:10:22;;;;;;;16.07;15.37;;;31.60;99.90;;;;;;5022799;28;20468;-69
2023/07/29 12:12:50;;;;;;;16.80;16.10;;;30.90;99.90;;;;;;5023244;28;20460;-69
2023/07/29 12:15:24;;;;;;;16.30;15.60;;;30.80;99.90;;;;;;5024782;28;21057;-69
2023/07/29 12:17:56;;;;;;;16.87;16.17;;;30.50;99.90;;;;;;5022803;28;20990;-70
2023/07/29 12:20:24;;;;;;;16.50;15.80;;;31.30;99.90;;;;;;5023153;28;20590;-70
2023/07/29 12:22:56;;;;;;;16.07;15.37;;;31.00;99.90;;;;;;5020044;28;21048;-68
2023/07/29 12:25:23;;;;;;;17.63;16.83;;;31.30;99.90;;;;;;5017565;28;20456;-69
2023/07/29 12:27:50;;;;;;;18.43;17.43;;;31.30;99.90;;;;;;5022765;28;20549;-68
2023/07/29 12:30:20;;;;;;;17.80;17.00;;;30.60;99.90;;;;;;5023404;28;20487;-68
2023/07/29 12:32:48;;;;;;;26.27;17.43;;;29.80;99.90;;;;;;5018253;28;20465;-69
2023/07/29 12:35:16;;;;;;;16.93;16.20;;;29.20;99.90;;;;;;5016871;28;20564;-71
2023/07/29 12:37:43;;;;;;;15.40;14.80;;;28.80;99.90;;;;;;5026822;28;20473;-72